Time,TemperatureF,DewpointF,PressureIn,WindDirection,WindDirectionDegrees,WindSpeedMPH,WindSpeedGustMPH,Humidity,HourlyPrecipIn,Conditions,Clouds,dailyrainin,SoftwareType,DateUTC
2013-03-25 00:00:00,27.1,25.1,30.18,NW,309,3.0,3.0,92,0.00,,,0.00,Wunderground v.1.15,2013-03-25 05:00:00,
2013-03-25 00:05:00,27.0,25.0,30.18,NNW,332,3.0,3.0,92,0.00,,,0.00,Wunderground v.1.15,2013-03-25 05:05:00,
2013-03-25 00:10:00,27.0,25.0,30.18,NNW,333,3.0,3.0,92,0.00,,,0.00,Wunderground v.1.15,2013-03-25 05:10:00,
2013-03-25 00:20:00,26.9,24.9,30.18,NNW,332,3.0,3.0,92,0.00,,,0.00,Wunderground v.1.15,2013-03-25 05:20:00,
2013-03-25 00:30:00,26.9,24.9,30.18,North,8,2.0,3.0,92,0.00,,,0.00,Wunderground v.1.15,2013-03-25 05:30:00,
2013-03-25 00:40:00,26.9,24.9,30.18,NNW,332,2.0,2.0,92,0.00,,,0.00,Wunderground v.1.15,2013-03-25 05:40:00,
2013-03-25 00:50:00,26.9,24.9,30.18,NW,315,2.0,3.0,92,0.00,,,0.00,Wunderground v.1.15,2013-03-25 05:50:00,
2013-03-25 00:59:00,26.9,24.9,30.18,NW,324,2.0,2.0,92,0.00,,,0.00,Wunderground v.1.15,2013-03-25 05:59:00,
2013-03-25 01:05:00,27.0,25.0,30.18,North,4,3.0,4.0,92,0.00,,,0.00,Wunderground v.1.15,2013-03-25 06:05:00,
2013-03-25 01:19:00,27.1,25.1,30.18,North,354,3.0,4.0,92,0.00,,,0.00,Wunderground v.1.15,2013-03-25 06:19:00,
2013-03-25 01:25:00,27.2,25.2,30.18,NNW,340,4.0,4.0,92,0.00,,,0.00,Wunderground v.1.15,2013-03-25 06:25:00,
2013-03-25 01:35:00,27.4,25.1,30.18,North,354,3.0,3.0,91,0.00,,,0.00,Wunderground v.1.15,2013-03-25 06:35:00,
2013-03-25 01:55:00,27.7,24.9,30.19,North,4,4.0,6.0,89,0.00,,,0.00,Wunderground v.1.15,2013-03-25 06:55:00,
2013-03-25 02:05:00,28.1,23.6,30.19,NNE,18,6.0,6.0,83,0.00,,,0.00,Wunderground v.1.15,2013-03-25 07:05:00,
2013-03-25 02:14:00,28.4,22.7,30.19,NNW,345,7.0,7.0,79,0.00,,,0.00,Wunderground v.1.15,2013-03-25 07:14:00,
2013-03-25 02:20:00,28.4,22.7,30.19,NE,35,7.0,7.0,79,0.00,,,0.00,Wunderground v.1.15,2013-03-25 07:20:00,
2013-03-25 02:30:00,28.2,22.2,30.19,NNE,23,6.0,6.0,78,0.00,,,0.00,Wunderground v.1.15,2013-03-25 07:30:00,
2013-03-25 02:40:00,27.9,21.3,30.19,NNE,30,6.0,6.0,76,0.00,,,0.00,Wunderground v.1.15,2013-03-25 07:40:00,
2013-03-25 02:45:00,27.6,21.0,30.19,NNW,335,6.0,6.0,76,0.00,,,0.00,Wunderground v.1.15,2013-03-25 07:45:00,
2013-03-25 02:55:00,27.2,20.6,30.19,North,9,5.0,5.0,76,0.00,,,0.00,Wunderground v.1.15,2013-03-25 07:55:00,
2013-03-25 03:05:00,26.7,20.1,30.19,North,359,4.0,7.0,76,0.00,,,0.00,Wunderground v.1.15,2013-03-25 08:05:00,
2013-03-25 03:15:00,26.4,20.2,30.19,North,8,5.0,5.0,77,0.00,,,0.00,Wunderground v.1.15,2013-03-25 08:15:00,
2013-03-25 03:25:00,26.2,20.0,30.19,NNE,12,5.0,5.0,77,0.00,,,0.00,Wunderground v.1.15,2013-03-25 08:25:00,
2013-03-25 03:35:00,25.8,19.6,30.19,NNE,33,5.0,8.0,77,0.00,,,0.00,Wunderground v.1.15,2013-03-25 08:35:00,
2013-03-25 03:45:00,25.6,19.4,30.19,North,349,6.0,6.0,77,0.00,,,0.00,Wunderground v.1.15,2013-03-25 08:45:00,
2013-03-25 03:50:00,25.6,19.4,30.19,North,10,5.0,5.0,77,0.00,,,0.00,Wunderground v.1.15,2013-03-25 08:50:00,
2013-03-25 04:00:00,25.5,19.3,30.19,North,4,5.0,5.0,77,0.00,,,0.00,Wunderground v.1.15,2013-03-25 09:00:00,
2013-03-25 04:05:00,25.3,19.1,30.19,North,10,5.0,5.0,77,0.00,,,0.00,Wunderground v.1.15,2013-03-25 09:05:00,
2013-03-25 04:14:00,25.1,18.9,30.19,North,349,3.0,4.0,77,0.00,,,0.00,Wunderground v.1.15,2013-03-25 09:14:00,
2013-03-25 04:19:00,24.8,18.9,30.19,North,349,3.0,7.0,78,0.00,,,0.00,Wunderground v.1.15,2013-03-25 09:19:00,
2013-03-25 04:25:00,24.5,18.6,30.19,NNW,330,3.0,7.0,78,0.00,,,0.00,Wunderground v.1.15,2013-03-25 09:25:00,
2013-03-25 04:34:00,24.3,18.7,30.19,NNW,341,3.0,4.0,79,0.00,,,0.00,Wunderground v.1.15,2013-03-25 09:34:00,
2013-03-25 04:40:00,24.1,18.8,30.19,North,349,3.0,3.0,80,0.00,,,0.00,Wunderground v.1.15,2013-03-25 09:40:00,
2013-03-25 04:50:00,23.9,18.9,30.19,North,349,3.0,3.0,81,0.00,,,0.00,Wunderground v.1.15,2013-03-25 09:50:00,
2013-03-25 04:55:00,23.8,18.8,30.19,North,359,3.0,3.0,81,0.00,,,0.00,Wunderground v.1.15,2013-03-25 09:55:00,
2013-03-25 05:05:00,23.7,18.7,30.20,NNE,15,3.0,6.0,81,0.00,,,0.00,Wunderground v.1.15,2013-03-25 10:05:00,
2013-03-25 05:15:00,23.8,18.8,30.20,NW,323,4.0,5.0,81,0.00,,,0.00,Wunderground v.1.15,2013-03-25 10:15:00,
2013-03-25 05:25:00,23.8,18.8,30.20,NW,325,3.0,4.0,81,0.00,,,0.00,Wunderground v.1.15,2013-03-25 10:25:00,
2013-03-25 05:30:00,23.6,18.6,30.20,NNW,338,3.0,3.0,81,0.00,,,0.00,Wunderground v.1.15,2013-03-25 10:30:00,
2013-03-25 05:40:00,23.4,18.4,30.20,North,354,3.0,5.0,81,0.00,,,0.00,Wunderground v.1.15,2013-03-25 10:40:00,
2013-03-25 05:50:00,23.5,18.5,30.21,NNW,335,4.0,4.0,81,0.00,,,0.00,Wunderground v.1.15,2013-03-25 10:50:00,
2013-03-25 05:55:00,23.6,18.6,30.21,North,354,4.0,5.0,81,0.00,,,0.00,Wunderground v.1.15,2013-03-25 10:55:00,
2013-03-25 06:00:00,23.5,18.5,30.21,NNW,337,4.0,5.0,81,0.00,,,0.00,Wunderground v.1.15,2013-03-25 11:00:00,
2013-03-25 06:05:00,23.4,18.4,30.21,North,9,4.0,5.0,81,0.00,,,0.00,Wunderground v.1.15,2013-03-25 11:05:00,
2013-03-25 06:15:00,23.4,18.4,30.21,North,354,4.0,6.0,81,0.00,,,0.00,Wunderground v.1.15,2013-03-25 11:15:00,
2013-03-25 06:20:00,23.4,18.4,30.21,North,4,4.0,4.0,81,0.00,,,0.00,Wunderground v.1.15,2013-03-25 11:20:00,
2013-03-25 06:25:00,23.4,18.4,30.21,NNW,327,4.0,7.0,81,0.00,,,0.00,Wunderground v.1.15,2013-03-25 11:25:00,
2013-03-25 06:35:00,23.3,18.3,30.22,NNW,330,3.0,6.0,81,0.00,,,0.00,Wunderground v.1.15,2013-03-25 11:35:00,
2013-03-25 06:45:00,23.2,18.2,30.22,North,359,4.0,4.0,81,0.00,,,0.00,Wunderground v.1.15,2013-03-25 11:45:00,
2013-03-25 06:50:00,23.1,18.1,30.22,North,354,4.0,4.0,81,0.00,,,0.00,Wunderground v.1.15,2013-03-25 11:50:00,
2013-03-25 07:00:00,23.1,18.1,30.22,North,354,4.0,5.0,81,0.00,,,0.00,Wunderground v.1.15,2013-03-25 12:00:00,
2013-03-25 07:05:00,23.1,18.1,30.22,North,349,4.0,5.0,81,0.00,,,0.00,Wunderground v.1.15,2013-03-25 12:05:00,
2013-03-25 07:15:00,22.8,17.8,30.23,NNW,339,3.0,3.0,81,0.00,,,0.00,Wunderground v.1.15,2013-03-25 12:15:00,
2013-03-25 07:25:00,22.7,18.0,30.23,North,359,4.0,4.0,82,0.00,,,0.00,Wunderground v.1.15,2013-03-25 12:25:00,
2013-03-25 07:30:00,22.6,17.6,30.23,NNW,340,3.0,5.0,81,0.00,,,0.00,Wunderground v.1.15,2013-03-25 12:30:00,
2013-03-25 07:40:00,22.8,17.8,30.23,North,350,4.0,4.0,81,0.00,,,0.00,Wunderground v.1.15,2013-03-25 12:40:00,
2013-03-25 07:45:00,23.0,18.0,30.24,North,354,4.0,5.0,81,0.00,,,0.00,Wunderground v.1.15,2013-03-25 12:45:00,
2013-03-25 07:55:00,23.0,18.0,30.24,NNW,348,4.0,4.0,81,0.00,,,0.00,Wunderground v.1.15,2013-03-25 12:55:00,
2013-03-25 08:00:00,23.1,18.1,30.24,NW,326,3.0,4.0,81,0.00,,,0.00,Wunderground v.1.15,2013-03-25 13:00:00,
2013-03-25 08:05:00,23.3,18.3,30.24,NW,320,4.0,4.0,81,0.00,,,0.00,Wunderground v.1.15,2013-03-25 13:05:00,
2013-03-25 08:15:00,23.6,18.3,30.24,North,354,4.0,6.0,80,0.00,,,0.00,Wunderground v.1.15,2013-03-25 13:15:00,
2013-03-25 08:20:00,23.8,18.2,30.24,NW,312,4.0,4.0,79,0.00,,,0.00,Wunderground v.1.15,2013-03-25 13:20:00,
2013-03-25 08:25:00,24.1,18.2,30.25,North,359,4.0,6.0,78,0.00,,,0.00,Wunderground v.1.15,2013-03-25 13:25:00,
2013-03-25 08:35:00,24.6,18.4,30.25,North,359,5.0,7.0,77,0.00,,,0.00,Wunderground v.1.15,2013-03-25 13:35:00,
2013-03-25 08:40:00,24.8,18.6,30.25,NNE,16,5.0,5.0,77,0.00,,,0.00,Wunderground v.1.15,2013-03-25 13:40:00,
2013-03-25 08:50:00,25.4,18.9,30.25,NNE,21,6.0,6.0,76,0.00,,,0.00,Wunderground v.1.15,2013-03-25 13:50:00,
2013-03-25 08:55:00,25.6,18.8,30.25,NNW,334,6.0,7.0,75,0.00,,,0.00,Wunderground v.1.15,2013-03-25 13:55:00,
2013-03-25 09:05:00,26.0,18.8,30.25,NNE,24,6.0,9.0,74,0.00,,,0.00,Wunderground v.1.15,2013-03-25 14:05:00,
2013-03-25 09:15:00,26.1,18.9,30.25,NNW,330,8.0,8.0,74,0.00,,,0.00,Wunderground v.1.15,2013-03-25 14:15:00,
2013-03-25 09:25:00,26.3,19.1,30.25,North,4,9.0,12.0,74,0.00,,,0.00,Wunderground v.1.15,2013-03-25 14:25:00,
2013-03-25 09:35:00,26.7,19.2,30.25,NNW,338,8.0,10.0,73,0.00,,,0.00,Wunderground v.1.15,2013-03-25 14:35:00,
2013-03-25 09:40:00,26.8,19.3,30.26,North,359,8.0,8.0,73,0.00,,,0.00,Wunderground v.1.15,2013-03-25 14:40:00,
2013-03-25 09:50:00,27.3,19.8,30.26,NNW,338,7.0,7.0,73,0.00,,,0.00,Wunderground v.1.15,2013-03-25 14:50:00,
2013-03-25 10:00:00,27.8,20.3,30.26,NNW,334,7.0,7.0,73,0.00,,,0.00,Wunderground v.1.15,2013-03-25 15:00:00,
2013-03-25 10:05:00,27.8,19.6,30.26,NNE,24,8.0,11.0,71,0.00,,,0.00,Wunderground v.1.15,2013-03-25 15:05:00,
2013-03-25 10:15:00,27.9,20.0,30.27,NNE,19,9.0,10.0,72,0.00,,,0.00,Wunderground v.1.15,2013-03-25 15:15:00,
2013-03-25 10:20:00,28.1,20.2,30.27,NNE,16,9.0,9.0,72,0.00,,,0.00,Wunderground v.1.15,2013-03-25 15:20:00,
2013-03-25 10:30:00,28.3,19.8,30.27,North,354,9.0,10.0,70,0.00,,,0.00,Wunderground v.1.15,2013-03-25 15:30:00,
2013-03-25 10:40:00,28.8,20.2,30.27,NNW,342,8.0,8.0,70,0.00,,,0.00,Wunderground v.1.15,2013-03-25 15:40:00,
2013-03-25 10:55:00,29.4,20.8,30.27,NW,312,7.0,8.0,70,0.00,,,0.00,Wunderground v.1.15,2013-03-25 15:55:00,
2013-03-25 11:05:00,29.7,21.1,30.28,NW,305,6.0,6.0,70,0.00,,,0.00,Wunderground v.1.15,2013-03-25 16:05:00,
2013-03-25 11:15:00,29.7,20.8,30.27,North,350,7.0,11.0,69,0.00,,,0.00,Wunderground v.1.15,2013-03-25 16:15:00,
2013-03-25 11:25:00,30.2,20.9,30.28,North,354,7.0,13.0,68,0.00,,,0.00,Wunderground v.1.15,2013-03-25 16:25:00,
2013-03-25 11:30:00,30.2,20.9,30.28,NNW,343,7.0,7.0,68,0.00,,,0.00,Wunderground v.1.15,2013-03-25 16:30:00,
2013-03-25 11:40:00,30.7,22.1,30.28,North,10,6.0,6.0,70,0.00,,,0.00,Wunderground v.1.15,2013-03-25 16:40:00,
2013-03-25 11:45:00,31.0,21.7,30.28,NW,322,6.0,6.0,68,0.00,,,0.00,Wunderground v.1.15,2013-03-25 16:45:00,
2013-03-25 11:55:00,31.0,21.3,30.28,NNW,348,6.0,7.0,67,0.00,,,0.00,Wunderground v.1.15,2013-03-25 16:55:00,
2013-03-25 12:05:00,31.6,21.9,30.28,NNW,343,6.0,10.0,67,0.00,,,0.00,Wunderground v.1.15,2013-03-25 17:05:00,
2013-03-25 12:15:00,31.7,21.3,30.28,NW,322,7.0,7.0,65,0.00,,,0.00,Wunderground v.1.15,2013-03-25 17:15:00,
2013-03-25 12:20:00,31.5,21.4,30.28,NNW,335,7.0,7.0,66,0.00,,,0.00,Wunderground v.1.15,2013-03-25 17:20:00,
2013-03-25 12:25:00,31.7,21.6,30.28,NNE,19,7.0,7.0,66,0.00,,,0.00,Wunderground v.1.15,2013-03-25 17:25:00,
2013-03-25 12:30:00,31.7,21.6,30.28,NNW,336,7.0,7.0,66,0.00,,,0.00,Wunderground v.1.15,2013-03-25 17:30:00,
2013-03-25 12:40:00,32.4,21.6,30.28,ENE,59,5.0,5.0,64,0.00,,,0.00,Wunderground v.1.15,2013-03-25 17:40:00,
2013-03-25 12:50:00,32.7,21.1,30.28,NNW,335,6.0,10.0,62,0.00,,,0.00,Wunderground v.1.15,2013-03-25 17:50:00,
2013-03-25 12:55:00,32.6,21.0,30.28,NNE,23,7.0,10.0,62,0.00,,,0.00,Wunderground v.1.15,2013-03-25 17:55:00,
2013-03-25 13:05:00,32.9,21.3,30.28,NE,37,7.0,8.0,62,0.00,,,0.00,Wunderground v.1.15,2013-03-25 18:05:00,
2013-03-25 13:15:00,33.0,21.4,30.27,West,268,7.0,8.0,62,0.00,,,0.00,Wunderground v.1.15,2013-03-25 18:15:00,
2013-03-25 13:20:00,33.0,21.0,30.28,NNW,339,7.0,9.0,61,0.00,,,0.00,Wunderground v.1.15,2013-03-25 18:20:00,
2013-03-25 13:30:00,33.2,20.8,30.27,NNW,341,7.0,11.0,60,0.00,,,0.00,Wunderground v.1.15,2013-03-25 18:30:00,
2013-03-25 13:40:00,33.7,22.1,30.28,NNW,327,7.0,7.0,62,0.00,,,0.00,Wunderground v.1.15,2013-03-25 18:40:00,
2013-03-25 13:50:00,33.9,21.9,30.27,NNE,20,6.0,16.0,61,0.00,,,0.00,Wunderground v.1.15,2013-03-25 18:50:00,
2013-03-25 13:55:00,33.8,21.8,30.27,NE,41,6.0,16.0,61,0.00,,,0.00,Wunderground v.1.15,2013-03-25 18:55:00,
2013-03-25 14:00:00,33.9,21.9,30.27,NW,316,7.0,7.0,61,0.00,,,0.00,Wunderground v.1.15,2013-03-25 19:00:00,
2013-03-25 14:05:00,34.0,22.0,30.27,NNE,19,6.0,8.0,61,0.00,,,0.00,Wunderground v.1.15,2013-03-25 19:05:00,
2013-03-25 14:15:00,34.1,22.4,30.27,NNW,343,7.0,7.0,62,0.00,,,0.00,Wunderground v.1.15,2013-03-25 19:15:00,
2013-03-25 14:20:00,34.3,21.8,30.27,NW,322,6.0,7.0,60,0.00,,,0.00,Wunderground v.1.15,2013-03-25 19:20:00,
2013-03-25 14:30:00,34.4,22.7,30.27,NW,305,7.0,8.0,62,0.00,,,0.00,Wunderground v.1.15,2013-03-25 19:30:00,
2013-03-25 14:40:00,34.5,22.0,30.27,North,4,6.0,9.0,60,0.00,,,0.00,Wunderground v.1.15,2013-03-25 19:40:00,
2013-03-25 14:50:00,34.8,21.9,30.27,North,354,6.0,9.0,59,0.00,,,0.00,Wunderground v.1.15,2013-03-25 19:50:00,
2013-03-25 15:00:00,34.6,22.1,30.27,North,349,6.0,6.0,60,0.00,,,0.00,Wunderground v.1.15,2013-03-25 20:00:00,
2013-03-25 15:05:00,35.0,22.5,30.27,NW,318,5.0,7.0,60,0.00,,,0.00,Wunderground v.1.15,2013-03-25 20:05:00,
2013-03-25 15:15:00,35.0,21.7,30.27,NNE,17,6.0,6.0,58,0.00,,,0.00,Wunderground v.1.15,2013-03-25 20:15:00,
2013-03-25 15:20:00,35.0,22.5,30.27,NNW,335,6.0,6.0,60,0.00,,,0.00,Wunderground v.1.15,2013-03-25 20:20:00,
2013-03-25 15:30:00,35.3,22.0,30.27,NNE,16,5.0,13.0,58,0.00,,,0.00,Wunderground v.1.15,2013-03-25 20:30:00,
2013-03-25 15:40:00,35.3,22.0,30.27,North,354,6.0,8.0,58,0.00,,,0.00,Wunderground v.1.15,2013-03-25 20:40:00,
2013-03-25 15:50:00,35.1,22.2,30.27,North,349,6.0,7.0,59,0.00,,,0.00,Wunderground v.1.15,2013-03-25 20:50:00,
2013-03-25 15:55:00,35.0,21.7,30.27,NW,310,6.0,7.0,58,0.00,,,0.00,Wunderground v.1.15,2013-03-25 20:55:00,
2013-03-25 16:05:00,35.5,22.6,30.27,NW,322,5.0,8.0,59,0.00,,,0.00,Wunderground v.1.15,2013-03-25 21:05:00,
2013-03-25 16:15:00,35.3,22.0,30.27,WNW,296,5.0,6.0,58,0.00,,,0.00,Wunderground v.1.15,2013-03-25 21:15:00,
2013-03-25 16:25:00,35.5,22.6,30.28,WNW,293,4.0,5.0,59,0.00,,,0.00,Wunderground v.1.15,2013-03-25 21:25:00,
2013-03-25 16:35:00,34.9,22.8,30.28,WNW,298,6.0,6.0,61,0.00,,,0.00,Wunderground v.1.15,2013-03-25 21:35:00,
2013-03-25 16:45:00,34.8,22.3,30.28,NNW,336,6.0,8.0,60,0.00,,,0.00,Wunderground v.1.15,2013-03-25 21:45:00,
2013-03-25 16:55:00,34.6,22.5,30.28,NW,325,6.0,9.0,61,0.00,,,0.00,Wunderground v.1.15,2013-03-25 21:55:00,
2013-03-25 17:00:00,34.6,22.5,30.28,NW,314,6.0,9.0,61,0.00,,,0.00,Wunderground v.1.15,2013-03-25 22:00:00,
2013-03-25 17:05:00,34.4,22.7,30.28,NNW,335,6.0,9.0,62,0.00,,,0.00,Wunderground v.1.15,2013-03-25 22:05:00,
2013-03-25 17:15:00,34.3,22.6,30.28,NW,305,6.0,6.0,62,0.00,,,0.00,Wunderground v.1.15,2013-03-25 22:15:00,
2013-03-25 17:20:00,34.3,22.2,30.28,WNW,303,6.0,9.0,61,0.00,,,0.00,Wunderground v.1.15,2013-03-25 22:20:00,
2013-03-25 17:30:00,34.1,22.0,30.29,North,354,7.0,7.0,61,0.00,,,0.00,Wunderground v.1.15,2013-03-25 22:30:00,
2013-03-25 17:35:00,34.2,22.1,30.29,NW,323,6.0,7.0,61,0.00,,,0.00,Wunderground v.1.15,2013-03-25 22:35:00,
2013-03-25 17:45:00,34.1,22.8,30.29,WNW,301,6.0,7.0,63,0.00,,,0.00,Wunderground v.1.15,2013-03-25 22:45:00,
2013-03-25 17:50:00,34.0,23.1,30.29,WNW,303,5.0,7.0,64,0.00,,,0.00,Wunderground v.1.15,2013-03-25 22:50:00,
2013-03-25 17:55:00,33.8,23.3,30.29,WNW,288,6.0,7.0,65,0.00,,,0.00,Wunderground v.1.15,2013-03-25 22:55:00,
2013-03-25 18:00:00,33.6,23.1,30.29,NW,306,5.0,6.0,65,0.00,,,0.00,Wunderground v.1.15,2013-03-25 23:00:00,
2013-03-25 18:05:00,33.5,23.4,30.29,NW,322,5.0,7.0,66,0.00,,,0.00,Wunderground v.1.15,2013-03-25 23:05:00,
2013-03-25 18:15:00,33.3,22.8,30.30,WNW,289,5.0,6.0,65,0.00,,,0.00,Wunderground v.1.15,2013-03-25 23:15:00,
2013-03-25 18:20:00,33.3,22.8,30.30,NNW,332,5.0,8.0,65,0.00,,,0.00,Wunderground v.1.15,2013-03-25 23:20:00,
2013-03-25 18:25:00,33.2,22.7,30.30,NW,318,5.0,8.0,65,0.00,,,0.00,Wunderground v.1.15,2013-03-25 23:25:00,
2013-03-25 18:35:00,33.0,22.5,30.31,NW,326,4.0,7.0,65,0.00,,,0.00,Wunderground v.1.15,2013-03-25 23:35:00,
2013-03-25 18:45:00,32.7,22.2,30.31,WNW,291,5.0,8.0,65,0.00,,,0.00,Wunderground v.1.15,2013-03-25 23:45:00,
2013-03-25 18:50:00,32.5,21.7,30.31,WNW,303,5.0,5.0,64,0.00,,,0.00,Wunderground v.1.15,2013-03-25 23:50:00,
2013-03-25 19:00:00,30.9,23.9,30.31,NW,317,7.0,14.0,75,0.00,,,0.00,Wunderground v.1.15,2013-03-26 00:00:00,
2013-03-25 19:05:00,30.1,23.4,30.32,NW,308,7.0,14.0,76,0.00,,,0.00,Wunderground v.1.15,2013-03-26 00:05:00,
2013-03-25 19:15:00,29.4,23.4,30.32,WNW,297,7.0,8.0,78,0.00,,,0.00,Wunderground v.1.15,2013-03-26 00:15:00,
2013-03-25 19:25:00,28.8,23.1,30.32,NW,312,6.0,7.0,79,0.00,,,0.00,Wunderground v.1.15,2013-03-26 00:25:00,
2013-03-25 19:35:00,28.4,22.7,30.33,WNW,295,5.0,6.0,79,0.00,,,0.00,Wunderground v.1.15,2013-03-26 00:35:00,
2013-03-25 19:40:00,28.2,22.8,30.33,WNW,291,5.0,5.0,80,0.00,,,0.00,Wunderground v.1.15,2013-03-26 00:40:00,
2013-03-25 19:50:00,27.7,22.3,30.33,West,278,5.0,5.0,80,0.00,,,0.00,Wunderground v.1.15,2013-03-26 00:50:00,
2013-03-25 20:00:00,27.4,22.3,30.33,WNW,287,5.0,5.0,81,0.00,,,0.00,Wunderground v.1.15,2013-03-26 01:00:00,
2013-03-25 20:05:00,27.2,22.1,30.33,NNW,335,5.0,5.0,81,0.00,,,0.00,Wunderground v.1.15,2013-03-26 01:05:00,
2013-03-25 20:15:00,26.7,21.9,30.33,WNW,291,5.0,6.0,82,0.00,,,0.00,Wunderground v.1.15,2013-03-26 01:15:00,
2013-03-25 20:20:00,26.5,21.7,30.33,NW,306,5.0,5.0,82,0.00,,,0.00,Wunderground v.1.15,2013-03-26 01:20:00,
2013-03-25 20:25:00,26.4,21.7,30.33,NW,311,5.0,5.0,82,0.00,,,0.00,Wunderground v.1.15,2013-03-26 01:25:00,
2013-03-25 20:35:00,26.1,21.4,30.34,NW,314,4.0,6.0,82,0.00,,,0.00,Wunderground v.1.15,2013-03-26 01:35:00,
2013-03-25 20:40:00,25.9,21.2,30.34,NW,324,4.0,4.0,82,0.00,,,0.00,Wunderground v.1.15,2013-03-26 01:40:00,
2013-03-25 20:50:00,25.7,21.3,30.34,NW,305,4.0,5.0,83,0.00,,,0.00,Wunderground v.1.15,2013-03-26 01:50:00,
2013-03-25 20:55:00,25.6,21.2,30.34,NW,318,4.0,6.0,83,0.00,,,0.00,Wunderground v.1.15,2013-03-26 01:55:00,
2013-03-25 21:05:00,25.2,20.8,30.34,NW,314,4.0,6.0,83,0.00,,,0.00,Wunderground v.1.15,2013-03-26 02:05:00,
2013-03-25 21:15:00,25.0,20.6,30.35,WNW,299,3.0,5.0,83,0.00,,,0.00,Wunderground v.1.15,2013-03-26 02:15:00,
2013-03-25 21:25:00,24.8,20.4,30.35,WNW,301,4.0,4.0,83,0.00,,,0.00,Wunderground v.1.15,2013-03-26 02:25:00,
2013-03-25 21:30:00,24.7,20.3,30.35,WNW,291,4.0,4.0,83,0.00,,,0.00,Wunderground v.1.15,2013-03-26 02:30:00,
2013-03-25 21:40:00,24.4,20.0,30.35,NNW,327,4.0,4.0,83,0.00,,,0.00,Wunderground v.1.15,2013-03-26 02:40:00,
2013-03-25 21:50:00,24.2,19.8,30.35,NW,318,3.0,6.0,83,0.00,,,0.00,Wunderground v.1.15,2013-03-26 02:50:00,
2013-03-25 21:55:00,24.1,19.7,30.35,WNW,295,3.0,6.0,83,0.00,,,0.00,Wunderground v.1.15,2013-03-26 02:55:00,
2013-03-25 22:05:00,23.8,19.4,30.36,NW,319,3.0,5.0,83,0.00,,,0.00,Wunderground v.1.15,2013-03-26 03:05:00,
2013-03-25 22:15:00,23.7,19.6,30.36,NW,304,4.0,5.0,84,0.00,,,0.00,Wunderground v.1.15,2013-03-26 03:15:00,
2013-03-25 22:20:00,23.6,19.2,30.36,WNW,297,4.0,4.0,83,0.00,,,0.00,Wunderground v.1.15,2013-03-26 03:20:00,
2013-03-25 22:30:00,23.4,19.0,30.36,West,278,4.0,4.0,83,0.00,,,0.00,Wunderground v.1.15,2013-03-26 03:30:00,
2013-03-25 22:40:00,23.3,18.9,30.36,NNW,327,3.0,3.0,83,0.00,,,0.00,Wunderground v.1.15,2013-03-26 03:40:00,
2013-03-25 22:45:00,23.1,18.7,30.36,NW,326,3.0,3.0,83,0.00,,,0.00,Wunderground v.1.15,2013-03-26 03:45:00,
2013-03-25 22:55:00,22.9,18.5,30.36,NW,316,3.0,6.0,83,0.00,,,0.00,Wunderground v.1.15,2013-03-26 03:55:00,
2013-03-25 23:00:00,22.9,18.5,30.36,NNW,332,4.0,4.0,83,0.00,,,0.00,Wunderground v.1.15,2013-03-26 04:00:00,
2013-03-25 23:05:00,22.8,18.4,30.36,NNW,329,4.0,4.0,83,0.00,,,0.00,Wunderground v.1.15,2013-03-26 04:05:00,
2013-03-25 23:10:00,22.8,18.4,30.36,NNW,335,3.0,3.0,83,0.00,,,0.00,Wunderground v.1.15,2013-03-26 04:10:00,
2013-03-25 23:15:00,22.7,18.3,30.36,NNW,337,4.0,4.0,83,0.00,,,0.00,Wunderground v.1.15,2013-03-26 04:15:00,
2013-03-25 23:20:00,22.7,18.3,30.37,WNW,297,4.0,4.0,83,0.00,,,0.00,Wunderground v.1.15,2013-03-26 04:20:00,
2013-03-25 23:25:00,22.5,18.1,30.37,WNW,300,4.0,4.0,83,0.00,,,0.00,Wunderground v.1.15,2013-03-26 04:25:00,
2013-03-25 23:35:00,22.4,18.0,30.37,NW,316,3.0,4.0,83,0.00,,,0.00,Wunderground v.1.15,2013-03-26 04:35:00,
2013-03-25 23:45:00,22.2,17.8,30.37,WNW,292,4.0,5.0,83,0.00,,,0.00,Wunderground v.1.15,2013-03-26 04:45:00,
2013-03-25 23:50:00,22.0,17.6,30.37,NNW,331,3.0,6.0,83,0.00,,,0.00,Wunderground v.1.15,2013-03-26 04:50:00,